createdAt,value
2018-09-20T00:00:30.646Z,0.00
2018-09-20T00:01:30.572Z,0.00
2018-09-20T00:02:30.496Z,0.00
2018-09-20T00:03:30.431Z,0.00
2018-09-20T00:04:30.348Z,0.00
2018-09-20T00:05:30.272Z,0.00
2018-09-20T00:06:30.198Z,0.00
2018-09-20T00:07:30.122Z,0.00
2018-09-20T00:08:30.051Z,0.00
2018-09-20T00:09:29.974Z,0.00
2018-09-20T00:10:29.900Z,0.00
2018-09-20T00:11:29.826Z,0.00
2018-09-20T00:12:29.756Z,0.00
2018-09-20T00:13:29.676Z,0.00
2018-09-20T00:14:29.604Z,0.00
2018-09-20T00:17:01.572Z,0.00
2018-09-20T00:18:01.453Z,0.00
2018-09-20T00:20:05.800Z,0.00
2018-09-20T00:21:05.684Z,0.00
2018-09-20T00:22:05.602Z,0.00
2018-09-20T00:23:05.530Z,0.00
2018-09-20T00:24:05.486Z,0.00
2018-09-20T00:25:05.379Z,0.00
2018-09-20T00:26:05.304Z,0.00
2018-09-20T00:27:05.229Z,0.00
2018-09-20T00:28:05.154Z,0.00
2018-09-20T00:29:05.081Z,0.00
2018-09-20T00:30:05.004Z,0.00
2018-09-20T00:31:04.940Z,0.00
2018-09-20T00:32:04.857Z,0.00
2018-09-20T00:33:04.781Z,0.00
2018-09-20T00:34:04.706Z,0.00
2018-09-20T00:35:04.633Z,0.00
2018-09-20T00:36:04.564Z,0.00
2018-09-20T00:37:04.484Z,0.00
2018-09-20T00:38:04.408Z,0.00
2018-09-20T00:39:04.343Z,0.00
2018-09-20T00:40:04.259Z,0.00
2018-09-20T00:41:04.187Z,0.00
2018-09-20T00:42:04.113Z,0.00
2018-09-20T00:43:04.036Z,0.00
2018-09-20T00:44:03.961Z,0.00
2018-09-20T00:45:03.897Z,0.00
2018-09-20T00:46:03.813Z,0.00
2018-09-20T00:47:03.735Z,0.00
2018-09-20T00:48:03.663Z,0.00
2018-09-20T00:49:03.599Z,0.00
2018-09-20T00:50:03.514Z,0.00
2018-09-20T00:51:03.438Z,0.00
2018-09-20T00:52:03.365Z,0.00
2018-09-20T00:53:03.292Z,0.00
2018-09-20T00:54:03.219Z,0.00
2018-09-20T00:55:03.143Z,0.00
2018-09-20T00:56:03.071Z,0.00
2018-09-20T00:57:02.993Z,0.00
2018-09-20T00:58:02.916Z,0.00
2018-09-20T00:59:02.841Z,0.00
2018-09-20T01:00:02.768Z,0.00
2018-09-20T01:01:02.693Z,0.00
2018-09-20T01:02:02.616Z,0.00
2018-09-20T01:03:02.543Z,0.00
2018-09-20T01:04:02.470Z,0.00
2018-09-20T01:05:02.400Z,0.00
2018-09-20T01:06:02.321Z,0.00
2018-09-20T01:07:02.248Z,0.00
2018-09-20T01:08:02.170Z,0.00
2018-09-20T01:09:02.095Z,0.00
2018-09-20T01:10:02.021Z,0.00
2018-09-20T01:11:01.947Z,0.00
2018-09-20T01:12:01.875Z,0.00
2018-09-20T01:13:01.799Z,0.00
2018-09-20T01:14:01.724Z,0.00
2018-09-20T01:15:01.649Z,0.00
2018-09-20T01:16:01.572Z,0.00
2018-09-20T01:17:01.501Z,0.00
2018-09-20T01:18:01.423Z,0.00
2018-09-20T01:19:01.353Z,0.00
2018-09-20T01:20:01.279Z,0.00
2018-09-20T01:21:01.209Z,0.00
2018-09-20T01:22:01.144Z,0.00
2018-09-20T01:23:01.053Z,0.00
2018-09-20T01:24:00.985Z,0.00
2018-09-20T01:25:00.903Z,0.00
2018-09-20T01:26:00.829Z,0.00
2018-09-20T01:27:00.752Z,0.00
2018-09-20T01:28:00.678Z,0.00
2018-09-20T01:29:00.604Z,0.00
2018-09-20T01:30:00.531Z,0.00
2018-09-20T01:31:00.454Z,0.00
2018-09-20T01:32:00.380Z,0.00
2018-09-20T01:33:00.304Z,0.00
2018-09-20T01:34:00.231Z,0.00
2018-09-20T01:35:00.155Z,0.00
2018-09-20T01:36:00.086Z,0.00
2018-09-20T01:37:00.016Z,0.00
2018-09-20T01:37:59.934Z,0.00
2018-09-20T01:38:59.857Z,0.00
2018-09-20T01:39:59.784Z,0.00
2018-09-20T01:40:59.711Z,0.00
2018-09-20T01:41:59.635Z,0.00
2018-09-20T01:42:59.559Z,0.00
2018-09-20T01:43:59.485Z,0.00
2018-09-20T01:44:59.423Z,0.00
2018-09-20T01:45:59.335Z,0.00
2018-09-20T01:46:59.261Z,0.00
2018-09-20T01:47:59.186Z,0.00
2018-09-20T01:48:59.113Z,0.00
2018-09-20T01:49:59.038Z,0.00
2018-09-20T01:50:58.961Z,0.00
2018-09-20T01:51:58.895Z,0.00
2018-09-20T01:52:58.816Z,0.00
2018-09-20T01:53:58.745Z,0.00
2018-09-20T01:54:58.664Z,0.00
2018-09-20T01:55:58.587Z,0.00
2018-09-20T01:56:58.515Z,0.00
2018-09-20T01:57:58.441Z,0.00
2018-09-20T01:58:58.367Z,0.00
2018-09-20T01:59:58.290Z,0.00
2018-09-20T02:00:58.225Z,0.00
2018-09-20T02:01:58.140Z,0.00
2018-09-20T02:02:58.066Z,0.00
2018-09-20T02:03:57.992Z,0.00
2018-09-20T02:04:57.921Z,0.00
2018-09-20T02:05:57.841Z,0.00
2018-09-20T02:06:57.766Z,0.00
2018-09-20T02:07:57.691Z,0.00
2018-09-20T02:08:57.622Z,0.00
2018-09-20T02:09:57.544Z,0.00
2018-09-20T02:10:57.469Z,0.00
2018-09-20T02:11:57.398Z,0.00
2018-09-20T02:12:57.319Z,0.00
2018-09-20T02:13:57.254Z,0.00
2018-09-20T02:14:57.171Z,0.00
2018-09-20T02:15:57.097Z,0.00
2018-09-20T02:16:57.020Z,0.00
2018-09-20T02:17:56.945Z,0.00
2018-09-20T02:18:56.870Z,0.00
2018-09-20T02:19:56.802Z,0.00
2018-09-20T02:20:56.725Z,0.00
2018-09-20T02:21:56.646Z,0.00
2018-09-20T02:22:56.574Z,0.00
2018-09-20T02:23:56.499Z,0.00
2018-09-20T02:24:56.428Z,0.00
2018-09-20T02:25:56.349Z,0.00
2018-09-20T02:26:56.283Z,0.00
2018-09-20T02:27:56.200Z,0.00
2018-09-20T02:28:56.132Z,0.00
2018-09-20T02:29:56.052Z,0.00
2018-09-20T02:30:55.979Z,0.00
2018-09-20T02:31:55.902Z,0.00
2018-09-20T02:32:55.826Z,0.00
2018-09-20T02:33:55.758Z,0.00
2018-09-20T02:34:55.686Z,0.00
2018-09-20T02:35:55.602Z,0.00
2018-09-20T02:36:55.528Z,0.00
2018-09-20T02:37:55.456Z,0.00
2018-09-20T02:38:55.382Z,0.00
2018-09-20T02:39:55.306Z,0.00
2018-09-20T02:40:55.229Z,0.00
2018-09-20T02:41:55.156Z,0.00
2018-09-20T02:42:55.087Z,0.00
2018-09-20T02:43:55.009Z,0.00
2018-09-20T02:44:54.932Z,0.00
2018-09-20T02:45:54.854Z,0.00
2018-09-20T02:46:54.781Z,0.00
2018-09-20T02:47:54.712Z,0.00
2018-09-20T02:48:54.632Z,0.00
2018-09-20T02:49:54.557Z,0.00
2018-09-20T02:50:54.480Z,0.00
2018-09-20T02:51:54.421Z,0.00
2018-09-20T02:52:54.332Z,0.00
2018-09-20T02:53:54.276Z,0.00
2018-09-20T02:54:54.183Z,0.00
2018-09-20T02:55:54.108Z,0.00
2018-09-20T02:56:54.037Z,0.00
2018-09-20T02:57:53.963Z,0.00
2018-09-20T02:58:53.911Z,0.00
2018-09-20T02:59:53.811Z,0.00
2018-09-20T03:00:53.736Z,0.00
2018-09-20T03:01:53.662Z,0.00
2018-09-20T03:02:53.586Z,0.00
2018-09-20T03:03:53.511Z,0.00
2018-09-20T03:04:53.438Z,0.00
2018-09-20T03:05:53.362Z,0.00
2018-09-20T03:06:53.288Z,0.00
2018-09-20T03:07:53.212Z,0.00
2018-09-20T03:08:53.152Z,0.00
2018-09-20T03:09:53.064Z,0.00
2018-09-20T03:10:52.986Z,0.00
2018-09-20T03:11:52.917Z,0.00
2018-09-20T03:12:52.837Z,0.00
2018-09-20T03:13:52.763Z,0.00
2018-09-20T03:14:52.687Z,0.00
2018-09-20T03:15:52.616Z,0.00
2018-09-20T03:16:52.541Z,0.00
2018-09-20T03:17:52.462Z,0.00
2018-09-20T03:18:52.397Z,0.00
2018-09-20T03:19:52.316Z,0.00
2018-09-20T03:20:52.241Z,0.00
2018-09-20T03:21:52.164Z,0.00
2018-09-20T03:22:52.092Z,0.00
2018-09-20T03:23:52.016Z,0.00
2018-09-20T03:24:51.942Z,0.00
2018-09-20T03:25:51.866Z,0.00
2018-09-20T03:26:51.794Z,0.00
2018-09-20T03:27:51.716Z,0.00
2018-09-20T03:28:51.642Z,0.00
2018-09-20T03:29:51.568Z,0.00
2018-09-20T03:30:51.646Z,0.00
2018-09-20T03:31:51.418Z,0.00
2018-09-20T03:32:51.347Z,0.00
2018-09-20T03:33:51.268Z,0.00
2018-09-20T03:34:51.197Z,0.00
2018-09-20T03:35:51.119Z,0.00
2018-09-20T03:36:51.046Z,0.00
2018-09-20T03:37:50.970Z,0.00
2018-09-20T03:38:50.894Z,0.00
2018-09-20T03:39:50.823Z,0.00
2018-09-20T03:40:50.748Z,0.00
2018-09-20T03:41:50.676Z,0.00
2018-09-20T03:42:50.596Z,0.00
2018-09-20T03:43:50.523Z,0.00
2018-09-20T03:44:50.447Z,0.00
2018-09-20T03:45:50.371Z,0.00
2018-09-20T03:46:50.299Z,0.00
2018-09-20T03:47:50.220Z,0.00
2018-09-20T03:48:50.145Z,0.00
2018-09-20T03:49:50.071Z,0.00
2018-09-20T03:50:50.014Z,0.00
2018-09-20T03:51:49.921Z,0.00
2018-09-20T03:52:49.845Z,0.00
2018-09-20T03:53:49.772Z,0.00
2018-09-20T03:54:49.703Z,0.00
2018-09-20T03:55:49.621Z,0.00
2018-09-20T03:56:49.549Z,0.00
2018-09-20T03:57:49.473Z,0.00
2018-09-20T03:58:49.398Z,0.00
2018-09-20T03:59:49.323Z,0.00
2018-09-20T04:00:49.247Z,0.00
2018-09-20T04:01:49.174Z,0.00
2018-09-20T04:02:49.099Z,0.00
2018-09-20T04:03:49.022Z,0.00
2018-09-20T04:04:48.949Z,0.00
2018-09-20T04:05:48.872Z,0.00
2018-09-20T04:06:48.806Z,0.00
2018-09-20T04:07:48.728Z,0.00
2018-09-20T04:08:48.660Z,0.00
2018-09-20T04:09:48.642Z,0.00
2018-09-20T04:10:48.500Z,0.00
2018-09-20T04:11:48.424Z,0.00
2018-09-20T04:12:48.350Z,0.00
2018-09-20T04:13:48.272Z,0.00
2018-09-20T04:14:48.203Z,0.00
2018-09-20T04:15:48.128Z,0.00
2018-09-20T04:16:48.050Z,0.00
2018-09-20T04:17:47.978Z,0.00
2018-09-20T04:18:47.898Z,0.00
2018-09-20T04:19:47.827Z,0.00
2018-09-20T04:20:47.751Z,0.00
2018-09-20T04:21:47.675Z,0.00
2018-09-20T04:22:47.602Z,0.00
2018-09-20T04:23:47.526Z,0.00
2018-09-20T04:24:47.454Z,0.00
2018-09-20T04:25:47.377Z,0.00
2018-09-20T04:26:47.304Z,0.00
2018-09-20T04:27:47.228Z,0.00
2018-09-20T04:28:47.155Z,0.00
2018-09-20T04:29:47.077Z,0.00
2018-09-20T04:30:47.004Z,0.00
2018-09-20T04:31:47.027Z,0.00
2018-09-20T04:32:46.855Z,0.00
2018-09-20T04:33:46.788Z,0.00
2018-09-20T04:34:46.704Z,0.00
2018-09-20T04:35:46.629Z,0.00
2018-09-20T04:36:46.554Z,0.00
2018-09-20T04:37:46.479Z,0.00
2018-09-20T04:38:46.404Z,0.00
2018-09-20T04:39:46.331Z,0.00
2018-09-20T04:40:46.256Z,0.00
2018-09-20T04:41:46.179Z,0.00
2018-09-20T04:42:46.106Z,0.00
2018-09-20T04:43:46.041Z,0.00
2018-09-20T04:44:45.957Z,0.00
2018-09-20T04:45:45.892Z,0.00
2018-09-20T04:46:45.804Z,0.00
2018-09-20T04:47:45.730Z,0.00
2018-09-20T04:48:45.659Z,0.00
2018-09-20T04:49:45.586Z,0.00
2018-09-20T04:50:45.506Z,0.00
2018-09-20T04:51:45.432Z,0.00
2018-09-20T04:52:45.358Z,0.00
2018-09-20T04:53:45.285Z,5.63
2018-09-20T04:54:45.208Z,5.63
2018-09-20T04:55:45.148Z,5.63
2018-09-20T04:56:45.060Z,5.63
2018-09-20T04:57:44.984Z,5.63
2018-09-20T04:58:44.908Z,5.63
2018-09-20T04:59:44.850Z,5.63
2018-09-20T05:00:44.760Z,11.25
2018-09-20T05:01:44.685Z,11.25
2018-09-20T05:02:44.614Z,11.25
2018-09-20T05:03:44.536Z,11.25
2018-09-20T05:04:44.462Z,11.25
2018-09-20T05:05:44.393Z,11.25
2018-09-20T05:06:44.311Z,16.88
2018-09-20T05:07:44.236Z,16.88
2018-09-20T05:08:44.161Z,16.88
2018-09-20T05:09:44.087Z,16.88
2018-09-20T05:10:44.017Z,22.50
2018-09-20T05:11:43.937Z,22.50
2018-09-20T05:12:43.862Z,22.50
2018-09-20T05:13:43.784Z,22.50
2018-09-20T05:14:43.756Z,22.50
2018-09-20T05:15:43.636Z,28.13
2018-09-20T05:16:43.565Z,28.13
2018-09-20T05:17:43.487Z,28.13
2018-09-20T05:18:43.412Z,28.13
2018-09-20T05:19:43.337Z,33.75
2018-09-20T05:20:43.264Z,33.75
2018-09-20T05:21:43.187Z,33.75
2018-09-20T05:22:43.112Z,33.75
2018-09-20T05:23:43.037Z,39.38
2018-09-20T05:24:42.962Z,39.38
2018-09-20T05:25:42.893Z,39.38
2018-09-20T05:26:42.812Z,39.38
2018-09-20T05:27:42.736Z,45.00
2018-09-20T05:28:42.661Z,45.00
2018-09-20T05:29:42.590Z,45.00
2018-09-20T05:30:42.512Z,45.00
2018-09-20T05:31:42.441Z,50.63
2018-09-20T05:32:42.363Z,50.63
2018-09-20T05:33:42.292Z,50.63
2018-09-20T05:34:42.213Z,50.63
2018-09-20T05:35:42.141Z,50.63
2018-09-20T05:36:42.063Z,56.25
2018-09-20T05:37:41.987Z,56.25
2018-09-20T05:38:41.924Z,56.25
2018-09-20T05:39:41.840Z,56.25
2018-09-20T05:40:41.765Z,56.25
2018-09-20T05:41:41.689Z,61.88
2018-09-20T05:42:41.645Z,61.88
2018-09-20T05:43:41.573Z,56.25
2018-09-20T05:44:41.465Z,61.88
2018-09-20T05:45:41.391Z,61.88
2018-09-20T05:46:41.313Z,61.88
2018-09-20T05:47:41.239Z,61.88
2018-09-20T05:48:41.187Z,61.88
2018-09-20T05:49:41.090Z,61.88
2018-09-20T05:50:41.030Z,61.88
2018-09-20T05:51:40.947Z,61.88
2018-09-20T05:52:40.865Z,61.88
2018-09-20T05:53:40.796Z,61.88
2018-09-20T05:54:40.720Z,67.50
2018-09-20T05:55:40.644Z,67.50
2018-09-20T05:56:40.569Z,67.50
2018-09-20T05:57:40.495Z,67.50
2018-09-20T05:58:40.420Z,67.50
2018-09-20T05:59:40.344Z,73.13
2018-09-20T06:00:40.275Z,73.13
2018-09-20T06:01:40.201Z,73.13
2018-09-20T06:02:40.119Z,73.13
2018-09-20T06:03:40.059Z,73.13
2018-09-20T06:04:39.991Z,73.13
2018-09-20T06:05:39.907Z,78.75
2018-09-20T06:06:39.829Z,78.75
2018-09-20T06:07:39.746Z,78.75
2018-09-20T06:08:39.673Z,78.75
2018-09-20T06:09:39.608Z,78.75
2018-09-20T06:10:39.533Z,78.75
2018-09-20T06:11:39.451Z,84.38
2018-09-20T06:12:39.380Z,84.38
2018-09-20T06:13:39.300Z,84.38
2018-09-20T06:14:39.228Z,84.38
2018-09-20T06:15:39.153Z,90.00
2018-09-20T06:16:39.083Z,95.63
2018-09-20T06:17:39.005Z,95.63
2018-09-20T06:18:46.095Z,95.63
2018-09-20T06:20:42.834Z,95.63
2018-09-20T06:21:42.727Z,95.63
2018-09-20T06:23:46.497Z,101.25
2018-09-20T06:24:46.418Z,101.25
2018-09-20T06:25:46.343Z,106.88
2018-09-20T06:26:46.282Z,106.88
2018-09-20T06:27:46.258Z,106.88
2018-09-20T06:28:46.123Z,112.50
2018-09-20T06:29:46.050Z,112.50
2018-09-20T06:30:45.969Z,118.13
2018-09-20T06:31:45.906Z,118.13
2018-09-20T06:32:45.824Z,118.13
2018-09-20T06:33:45.754Z,118.13
2018-09-20T06:34:45.734Z,123.75
2018-09-20T06:35:45.603Z,123.75
2018-09-20T06:36:45.537Z,123.75
2018-09-20T06:37:45.458Z,123.75
2018-09-20T06:38:45.376Z,129.38
2018-09-20T06:39:45.306Z,129.38
2018-09-20T06:40:45.233Z,129.38
2018-09-20T06:41:45.153Z,129.38
2018-09-20T06:42:45.079Z,135.00
2018-09-20T06:43:45.003Z,135.00
2018-09-20T06:44:44.940Z,146.25
2018-09-20T06:45:44.858Z,140.63
2018-09-20T06:46:44.783Z,140.63
2018-09-20T06:47:44.711Z,140.63
2018-09-20T06:48:44.632Z,146.25
2018-09-20T06:49:44.563Z,151.88
2018-09-20T06:50:44.485Z,151.88
2018-09-20T06:51:44.409Z,151.88
2018-09-20T06:52:44.337Z,146.25
2018-09-20T06:53:44.263Z,151.88
2018-09-20T06:54:44.192Z,146.25
2018-09-20T06:55:44.121Z,151.88
2018-09-20T06:56:44.092Z,157.50
2018-09-20T06:57:43.966Z,151.88
2018-09-20T06:58:43.897Z,157.50
2018-09-20T06:59:43.818Z,157.50
2018-09-20T07:00:43.747Z,163.13
2018-09-20T07:01:43.675Z,163.13
2018-09-20T07:02:43.623Z,168.75
2018-09-20T07:03:43.528Z,168.75
2018-09-20T07:04:43.452Z,174.38
2018-09-20T07:05:43.377Z,174.38
2018-09-20T07:06:43.301Z,185.63
2018-09-20T07:07:43.224Z,180.00
2018-09-20T07:08:43.153Z,180.00
2018-09-20T07:09:43.080Z,168.75
2018-09-20T07:10:43.019Z,180.00
2018-09-20T07:11:42.931Z,180.00
2018-09-20T07:12:42.853Z,174.38
2018-09-20T07:13:42.867Z,180.00
2018-09-20T07:14:42.706Z,180.00
2018-09-20T07:15:42.632Z,185.63
2018-09-20T07:16:42.572Z,163.13
2018-09-20T07:17:42.486Z,180.00
2018-09-20T07:18:42.414Z,185.63
2018-09-20T07:19:42.345Z,191.25
2018-09-20T07:20:42.262Z,191.25
2018-09-20T07:21:42.190Z,185.63
2018-09-20T07:22:42.115Z,196.88
2018-09-20T07:23:42.041Z,191.25
2018-09-20T07:24:41.973Z,196.88
2018-09-20T07:25:41.939Z,191.25
2018-09-20T07:26:41.820Z,196.88
2018-09-20T07:27:41.748Z,191.25
2018-09-20T07:28:41.678Z,185.63
2018-09-20T07:29:41.598Z,185.63
2018-09-20T07:30:41.524Z,191.25
2018-09-20T07:31:41.453Z,174.38
2018-09-20T07:32:41.429Z,168.75
2018-09-20T07:33:41.300Z,185.63
2018-09-20T07:34:41.234Z,168.75
2018-09-20T07:35:41.153Z,168.75
2018-09-20T07:36:41.085Z,180.00
2018-09-20T07:37:41.011Z,174.38
2018-09-20T07:38:40.930Z,168.75
2018-09-20T07:39:40.860Z,174.38
2018-09-20T07:40:40.796Z,174.38
2018-09-20T07:41:40.709Z,180.00
2018-09-20T07:42:40.641Z,174.38
2018-09-20T07:43:40.626Z,174.38
2018-09-20T07:44:40.492Z,174.38
2018-09-20T07:45:40.420Z,174.38
2018-09-20T07:46:40.342Z,174.38
2018-09-20T07:47:40.269Z,180.00
2018-09-20T07:48:40.197Z,180.00
2018-09-20T07:49:40.124Z,180.00
2018-09-20T07:50:40.052Z,180.00
2018-09-20T07:51:39.974Z,180.00
2018-09-20T07:52:39.914Z,180.00
2018-09-20T07:53:39.914Z,180.00
2018-09-20T07:54:39.768Z,180.00
2018-09-20T07:55:39.678Z,185.63
2018-09-20T07:56:39.608Z,185.63
2018-09-20T07:57:39.530Z,185.63
2018-09-20T07:58:39.459Z,185.63
2018-09-20T07:59:39.385Z,185.63
2018-09-20T08:00:39.310Z,185.63
2018-09-20T08:01:39.303Z,185.63
2018-09-20T08:02:39.159Z,185.63
2018-09-20T08:03:39.087Z,185.63
2018-09-20T08:04:39.011Z,185.63
2018-09-20T08:05:38.938Z,185.63
2018-09-20T08:06:38.865Z,185.63
2018-09-20T08:07:38.792Z,191.25
2018-09-20T08:08:38.720Z,191.25
2018-09-20T08:09:38.647Z,191.25
2018-09-20T08:10:38.579Z,191.25
2018-09-20T08:11:38.497Z,191.25
2018-09-20T08:12:38.421Z,191.25
2018-09-20T08:13:38.347Z,191.25
2018-09-20T08:14:38.275Z,191.25
2018-09-20T08:15:38.204Z,191.25
2018-09-20T08:16:38.127Z,191.25
2018-09-20T08:17:38.060Z,196.88
2018-09-20T08:18:37.988Z,196.88
2018-09-20T08:19:37.917Z,196.88
2018-09-20T08:20:37.831Z,196.88
2018-09-20T08:21:37.819Z,196.88
2018-09-20T08:22:37.685Z,196.88
2018-09-20T08:23:37.612Z,196.88
2018-09-20T08:24:37.537Z,196.88
2018-09-20T08:25:37.470Z,196.88
2018-09-20T08:26:37.398Z,196.88
2018-09-20T08:27:37.342Z,196.88
2018-09-20T08:28:37.296Z,196.88
2018-09-20T08:29:37.169Z,196.88
2018-09-20T08:30:37.101Z,202.50
2018-09-20T08:31:37.031Z,202.50
2018-09-20T08:32:36.949Z,202.50
2018-09-20T08:33:36.875Z,202.50
2018-09-20T08:34:36.805Z,202.50
2018-09-20T08:35:36.734Z,202.50
2018-09-20T08:36:36.660Z,202.50
2018-09-20T08:37:36.630Z,202.50
2018-09-20T08:38:36.508Z,202.50
2018-09-20T08:39:36.439Z,202.50
2018-09-20T08:40:36.361Z,202.50
2018-09-20T08:41:36.291Z,202.50
2018-09-20T08:42:36.214Z,202.50
2018-09-20T08:43:36.141Z,208.13
2018-09-20T08:44:36.074Z,208.13
2018-09-20T08:45:36.004Z,208.13
2018-09-20T08:46:35.923Z,208.13
2018-09-20T08:47:35.852Z,208.13
2018-09-20T08:48:35.782Z,208.13
2018-09-20T08:49:35.704Z,208.13
2018-09-20T08:50:35.629Z,208.13
2018-09-20T08:51:35.556Z,213.75
2018-09-20T08:52:35.485Z,219.38
2018-09-20T08:53:35.412Z,213.75
2018-09-20T08:54:35.340Z,213.75
2018-09-20T08:55:35.269Z,213.75
2018-09-20T08:56:35.190Z,213.75
2018-09-20T08:57:35.122Z,219.38
2018-09-20T08:58:35.045Z,219.38
2018-09-20T08:59:34.972Z,219.38
2018-09-20T09:00:34.900Z,213.75
2018-09-20T09:01:34.830Z,219.38
2018-09-20T09:02:34.758Z,219.38
2018-09-20T09:03:34.721Z,219.38
2018-09-20T09:04:34.629Z,219.38
2018-09-20T09:05:34.541Z,219.38
2018-09-20T09:06:34.461Z,225.00
2018-09-20T09:07:34.388Z,225.00
2018-09-20T09:08:34.321Z,225.00
2018-09-20T09:09:34.249Z,225.00
2018-09-20T09:10:34.174Z,230.63
2018-09-20T09:11:34.099Z,230.63
2018-09-20T09:12:34.035Z,230.63
2018-09-20T09:13:33.958Z,230.63
2018-09-20T09:14:33.886Z,230.63
2018-09-20T09:15:33.809Z,230.63
2018-09-20T09:16:33.736Z,236.25
2018-09-20T09:17:33.663Z,236.25
2018-09-20T09:18:33.590Z,241.88
2018-09-20T09:19:33.580Z,241.88
2018-09-20T09:20:33.444Z,236.25
2018-09-20T09:21:33.379Z,236.25
2018-09-20T09:22:33.298Z,236.25
2018-09-20T09:23:33.228Z,241.88
2018-09-20T09:24:33.155Z,241.88
2018-09-20T09:25:33.170Z,241.88
2018-09-20T09:26:33.010Z,241.88
2018-09-20T09:27:32.935Z,241.88
2018-09-20T09:28:32.950Z,247.50
2018-09-20T09:29:32.796Z,247.50
2018-09-20T09:30:32.726Z,247.50
2018-09-20T09:31:32.653Z,253.13
2018-09-20T09:32:32.592Z,253.13
2018-09-20T09:33:32.503Z,253.13
2018-09-20T09:34:32.443Z,258.75
2018-09-20T09:35:32.363Z,258.75
2018-09-20T09:36:32.287Z,258.75
2018-09-20T09:37:32.218Z,264.38
2018-09-20T09:38:32.141Z,264.38
2018-09-20T09:39:32.074Z,270.00
2018-09-20T09:40:31.997Z,264.38
2018-09-20T09:41:31.925Z,270.00
2018-09-20T09:42:31.854Z,270.00
2018-09-20T09:43:31.783Z,275.63
2018-09-20T09:44:31.710Z,275.63
2018-09-20T09:45:31.638Z,275.63
2018-09-20T09:46:31.568Z,275.63
2018-09-20T09:47:31.495Z,275.63
2018-09-20T09:48:31.427Z,281.25
2018-09-20T09:49:31.355Z,281.25
2018-09-20T09:50:31.279Z,281.25
2018-09-20T09:51:31.205Z,286.88
2018-09-20T09:52:31.132Z,286.88
2018-09-20T09:53:31.063Z,286.88
2018-09-20T09:54:31.057Z,292.50
2018-09-20T09:55:30.923Z,292.50
2018-09-20T09:56:30.852Z,286.88
2018-09-20T09:57:30.777Z,292.50
2018-09-20T09:58:30.706Z,292.50
2018-09-20T09:59:30.630Z,292.50
2018-09-20T10:00:30.559Z,298.13
2018-09-20T10:01:30.490Z,298.13
2018-09-20T10:02:30.447Z,303.75
2018-09-20T10:03:30.347Z,303.75
2018-09-20T10:04:30.275Z,303.75
2018-09-20T10:05:30.204Z,309.38
2018-09-20T10:06:30.131Z,309.38
2018-09-20T10:07:30.062Z,315.00
2018-09-20T10:08:29.991Z,315.00
2018-09-20T10:09:29.920Z,320.63
2018-09-20T10:10:29.887Z,326.25
2018-09-20T10:11:29.780Z,326.25
2018-09-20T10:12:29.714Z,326.25
2018-09-20T10:13:29.687Z,331.88
2018-09-20T10:14:29.563Z,331.88
2018-09-20T10:15:29.497Z,337.50
2018-09-20T10:16:29.453Z,337.50
2018-09-20T10:17:29.352Z,343.13
2018-09-20T10:18:29.280Z,343.13
2018-09-20T10:19:29.210Z,348.75
2018-09-20T10:20:29.136Z,348.75
2018-09-20T10:21:29.114Z,348.75
2018-09-20T10:22:29.002Z,348.75
2018-09-20T10:23:28.929Z,348.75
2018-09-20T10:24:28.895Z,354.38
2018-09-20T10:25:28.786Z,354.38
2018-09-20T10:26:28.713Z,360.00
2018-09-20T10:27:28.643Z,365.63
2018-09-20T10:28:28.576Z,365.63
2018-09-20T10:29:28.555Z,371.25
2018-09-20T10:30:28.430Z,371.25
2018-09-20T10:31:28.465Z,376.88
2018-09-20T10:32:28.326Z,376.88
2018-09-20T10:33:28.222Z,376.88
2018-09-20T10:34:28.181Z,382.50
2018-09-20T10:35:28.081Z,388.13
2018-09-20T10:36:28.009Z,388.13
2018-09-20T10:37:27.943Z,388.13
2018-09-20T10:38:27.906Z,399.38
2018-09-20T10:39:27.799Z,393.75
2018-09-20T10:40:27.731Z,399.38
2018-09-20T10:41:27.660Z,405.00
2018-09-20T10:42:27.588Z,399.38
2018-09-20T10:43:27.533Z,405.00
2018-09-20T10:44:27.449Z,405.00
2018-09-20T10:45:27.383Z,405.00
2018-09-20T10:46:27.311Z,410.63
2018-09-20T10:47:27.315Z,410.63
2018-09-20T10:48:27.173Z,416.25
2018-09-20T10:49:27.101Z,416.25
2018-09-20T10:50:27.034Z,421.88
2018-09-20T10:51:26.989Z,427.50
2018-09-20T10:52:26.893Z,427.50
2018-09-20T10:53:26.827Z,433.13
2018-09-20T10:54:26.814Z,438.75
2018-09-20T10:55:26.712Z,444.38
2018-09-20T10:56:26.614Z,444.38
2018-09-20T10:57:26.545Z,444.38
2018-09-20T10:58:26.479Z,450.00
2018-09-20T10:59:26.405Z,450.00
2018-09-20T11:00:26.337Z,455.63
2018-09-20T11:01:26.268Z,461.25
2018-09-20T11:02:26.197Z,461.25
2018-09-20T11:03:26.195Z,461.25
2018-09-20T11:04:26.059Z,472.50
2018-09-20T11:05:25.992Z,472.50
2018-09-20T11:06:25.920Z,478.13
2018-09-20T11:07:25.860Z,483.75
2018-09-20T11:08:25.797Z,483.75
2018-09-20T11:09:25.720Z,489.38
2018-09-20T11:10:25.651Z,495.00
2018-09-20T11:11:25.582Z,500.63
2018-09-20T11:12:25.522Z,500.63
2018-09-20T11:13:25.440Z,506.25
2018-09-20T11:14:25.379Z,506.25
2018-09-20T11:15:25.303Z,506.25
2018-09-20T11:16:25.241Z,523.13
2018-09-20T11:17:25.165Z,551.25
2018-09-20T11:18:25.098Z,1029.38
2018-09-20T11:19:25.037Z,2536.88
2018-09-20T11:20:24.972Z,3960.00
2018-09-20T11:21:24.896Z,4156.88
2018-09-20T11:22:24.826Z,3796.88
2018-09-20T11:23:24.768Z,3808.13
2018-09-20T11:24:24.707Z,3931.88
2018-09-20T11:25:24.737Z,3909.38
2018-09-20T11:26:24.563Z,3982.50
2018-09-20T11:27:24.525Z,4061.25
2018-09-20T11:28:24.435Z,3706.88
2018-09-20T11:29:24.382Z,3763.13
2018-09-20T11:30:24.334Z,4016.25
2018-09-20T11:31:24.253Z,4201.88
2018-09-20T11:32:24.183Z,4269.38
2018-09-20T11:33:24.129Z,4095.00
2018-09-20T11:34:24.059Z,4263.75
2018-09-20T11:35:24.001Z,4348.13
2018-09-20T11:36:23.984Z,4393.13
2018-09-20T11:37:23.878Z,4460.63
2018-09-20T11:38:23.817Z,4449.38
2018-09-20T11:39:23.758Z,4246.88
2018-09-20T11:40:23.698Z,4111.88
2018-09-20T11:41:23.640Z,4100.63
2018-09-20T11:42:23.576Z,4083.75
2018-09-20T11:43:23.525Z,4213.13
2018-09-20T11:44:23.457Z,4308.75
2018-09-20T11:45:23.398Z,4353.75
2018-09-20T11:46:23.352Z,4246.88
2018-09-20T11:47:23.308Z,4106.25
2018-09-20T11:48:23.229Z,4320.00
2018-09-20T11:49:23.167Z,4387.50
2018-09-20T11:50:23.116Z,4173.75
2018-09-20T11:51:23.061Z,4190.63
2018-09-20T11:52:22.991Z,4156.88
2018-09-20T11:53:22.934Z,4269.38
2018-09-20T11:54:22.877Z,4303.13
2018-09-20T11:55:22.829Z,4415.63
2018-09-20T11:56:22.771Z,4606.88
2018-09-20T11:57:22.714Z,4415.63
2018-09-20T11:58:22.654Z,4230.00
2018-09-20T11:59:22.596Z,4314.38
2018-09-20T12:00:22.539Z,4494.38
2018-09-20T12:01:22.531Z,4325.63
2018-09-20T12:02:22.489Z,4021.88
2018-09-20T12:03:22.379Z,3836.25
2018-09-20T12:04:22.327Z,3915.00
2018-09-20T12:05:22.266Z,4078.13
2018-09-20T12:06:22.209Z,4123.13
2018-09-20T12:07:22.152Z,4185.00
2018-09-20T12:08:22.099Z,4173.75
2018-09-20T12:09:22.043Z,4044.38
2018-09-20T12:10:21.990Z,4055.63
2018-09-20T12:11:21.949Z,4055.63
2018-09-20T12:12:21.896Z,4111.88
2018-09-20T12:13:21.826Z,4286.25
2018-09-20T12:14:21.811Z,4303.13
2018-09-20T12:15:21.778Z,4224.38
2018-09-20T12:16:21.671Z,4303.13
2018-09-20T12:17:21.614Z,4381.88
2018-09-20T12:18:21.571Z,4415.63
2018-09-20T12:19:21.505Z,4477.50
2018-09-20T12:20:21.457Z,4224.38
2018-09-20T12:21:21.394Z,4078.13
2018-09-20T12:22:21.343Z,4179.38
2018-09-20T12:23:21.288Z,4207.50
2018-09-20T12:24:21.238Z,4291.88
2018-09-20T12:25:21.251Z,4393.13
2018-09-20T12:26:21.134Z,4365.00
2018-09-20T12:27:21.076Z,4297.50
2018-09-20T12:28:21.022Z,3853.13
2018-09-20T12:29:20.970Z,3943.13
2018-09-20T12:31:52.556Z,4066.88
2018-09-20T12:32:52.439Z,4252.50
2018-09-20T12:33:52.343Z,4550.63
2018-09-20T12:34:52.297Z,4460.63
2018-09-20T12:35:52.318Z,4083.75
2018-09-20T12:36:52.192Z,3898.13
2018-09-20T12:37:52.143Z,4027.50
2018-09-20T12:38:52.172Z,4230.00
2018-09-20T12:39:52.030Z,4370.63
2018-09-20T12:40:51.982Z,4381.88
2018-09-20T12:41:51.926Z,4466.25
2018-09-20T12:42:51.939Z,4488.75
2018-09-20T12:43:51.824Z,4263.75
2018-09-20T12:44:51.769Z,4246.88
2018-09-20T12:45:51.724Z,4275.00
2018-09-20T12:46:51.669Z,4196.25
2018-09-20T12:47:51.619Z,4201.88
2018-09-20T12:48:51.562Z,4241.25
2018-09-20T12:49:51.512Z,4128.75
2018-09-20T12:50:51.467Z,4173.75
2018-09-20T12:51:51.409Z,4297.50